Time;durP1;ratioP1;P1;durP2;ratioP2;P2;SDS_P1;SDS_P2;PMS_P1;PMS_P2;Temp;Humidity;BMP_temperature;BMP_pressure;BME280_temperature;BME280_humidity;BME280_pressure;Samples;Min_cycle;Max_cycle;Signal;HPM_P1;HPM_P2
2021/11/26 00:01:48;;;;;;;47.17;26.30;;;3.80;99.90;;;;;;6252406;23;20510;-54
2021/11/26 00:04:14;;;;;;;45.27;25.37;;;3.50;99.90;;;;;;6240780;23;20164;-54
2021/11/26 00:06:40;;;;;;;43.70;24.00;;;3.10;99.90;;;;;;6252611;22;20188;-54
2021/11/26 00:09:05;;;;;;;42.33;25.40;;;3.50;99.90;;;;;;6252656;23;20196;-53
2021/11/26 00:11:31;;;;;;;42.57;24.23;;;3.50;99.90;;;;;;6243467;23;20501;-55
2021/11/26 00:17:03;;;;;;;43.53;24.08;;;3.30;99.90;;;;;;6128535;23;20890;-54
2021/11/26 00:19:29;;;;;;;40.50;24.17;;;3.60;99.90;;;;;;6128478;23;20155;-54
2021/11/26 00:21:57;;;;;;;44.00;25.17;;;3.70;99.90;;;;;;6189152;22;20561;-54
2021/11/26 00:24:23;;;;;;;41.90;23.88;;;3.50;99.90;;;;;;6253551;22;20153;-54
2021/11/26 00:26:50;;;;;;;46.53;23.95;;;3.30;99.90;;;;;;6242919;22;20165;-53
2021/11/26 00:29:16;;;;;;;40.50;24.60;;;3.10;99.90;;;;;;6253044;23;20160;-53
2021/11/26 00:31:42;;;;;;;43.55;25.27;;;3.20;99.90;;;;;;6252874;22;20245;-54
2021/11/26 00:34:09;;;;;;;42.53;24.77;;;3.50;99.90;;;;;;6252775;22;20154;-54
2021/11/26 00:36:35;;;;;;;40.13;24.20;;;3.20;99.90;;;;;;6252389;22;20160;-54
2021/11/26 00:39:02;;;;;;;43.43;23.87;;;3.40;99.90;;;;;;6251440;23;20524;-54
2021/11/26 00:41:28;;;;;;;39.83;24.73;;;3.20;99.90;;;;;;6251994;23;20432;-53
2021/11/26 00:43:54;;;;;;;39.43;23.40;;;2.90;99.90;;;;;;6253113;23;20603;-54
2021/11/26 00:46:20;;;;;;;36.60;24.00;;;2.90;99.90;;;;;;6240775;23;20177;-54
2021/11/26 00:48:46;;;;;;;46.38;26.98;;;3.50;99.90;;;;;;6252250;23;20546;-54
2021/11/26 00:51:12;;;;;;;43.20;23.42;;;3.60;99.90;;;;;;6252750;22;20196;-54
2021/11/26 00:53:38;;;;;;;38.13;23.52;;;3.60;99.90;;;;;;6253214;22;20153;-54
2021/11/26 00:56:05;;;;;;;39.77;24.63;;;3.70;99.90;;;;;;6252336;23;20149;-54
2021/11/26 00:58:31;;;;;;;44.80;25.98;;;3.70;99.90;;;;;;6251063;22;20383;-54
2021/11/26 01:00:57;;;;;;;42.38;23.50;;;3.50;99.90;;;;;;6240006;23;20208;-53
2021/11/26 01:03:23;;;;;;;45.20;24.08;;;3.50;99.90;;;;;;6252434;22;20177;-54
2021/11/26 01:05:50;;;;;;;45.63;26.60;;;3.30;99.90;;;;;;6252788;22;20179;-53
2021/11/26 01:08:19;;;;;;;44.08;25.50;;;2.90;99.90;;;;;;6242164;22;20158;-54
2021/11/26 01:10:46;;;;;;;34.83;22.48;;;3.60;99.90;;;;;;6252618;23;20180;-54
2021/11/26 01:13:11;;;;;;;40.78;24.80;;;3.50;99.90;;;;;;6242866;22;20161;-53
2021/11/26 01:15:39;;;;;;;42.27;24.03;;;3.50;99.90;;;;;;6254811;23;20157;-54
2021/11/26 01:18:06;;;;;;;36.35;22.95;;;3.00;99.90;;;;;;6253145;22;20146;-54
2021/11/26 01:20:33;;;;;;;41.35;24.20;;;3.10;99.90;;;;;;6254002;22;20517;-55
2021/11/26 01:23:00;;;;;;;40.78;24.02;;;3.40;99.90;;;;;;6254714;22;20410;-54
2021/11/26 01:25:26;;;;;;;46.20;23.85;;;3.40;99.90;;;;;;6253692;22;20149;-54
2021/11/26 01:27:52;;;;;;;40.45;22.95;;;3.50;99.90;;;;;;6254698;22;20153;-54
2021/11/26 01:30:27;;;;;;;37.75;23.52;;;3.30;99.90;;;;;;6254891;22;20165;-54
2021/11/26 01:32:57;;;;;;;42.83;24.27;;;3.60;99.90;;;;;;6254529;23;20129;-54
2021/11/26 01:35:23;;;;;;;39.80;24.98;;;3.50;99.90;;;;;;6254361;22;20229;-54
2021/11/26 01:37:49;;;;;;;54.17;26.45;;;3.70;99.90;;;;;;6253114;22;20510;-54
2021/11/26 01:40:16;;;;;;;39.45;23.52;;;3.50;99.90;;;;;;6241165;23;20822;-54
2021/11/26 01:42:42;;;;;;;40.75;22.85;;;3.30;99.90;;;;;;6254439;22;20181;-54
2021/11/26 01:45:09;;;;;;;39.33;24.63;;;3.10;99.90;;;;;;6254746;22;20232;-54
2021/11/26 01:47:35;;;;;;;36.55;24.13;;;3.70;99.90;;;;;;6243986;22;20403;-54
2021/11/26 01:50:03;;;;;;;42.57;24.37;;;3.80;99.90;;;;;;6254017;23;20149;-54
2021/11/26 01:52:29;;;;;;;44.58;24.25;;;2.90;99.90;;;;;;6244346;22;20161;-54
2021/11/26 01:54:54;;;;;;;40.10;23.83;;;3.30;99.90;;;;;;6244039;23;20165;-54
2021/11/26 01:57:20;;;;;;;40.93;24.70;;;3.30;99.90;;;;;;6243474;23;20507;-53
2021/11/26 01:59:51;;;;;;;37.57;23.67;;;3.60;99.90;;;;;;6252557;23;20161;-54
2021/11/26 02:02:17;;;;;;;41.13;24.55;;;3.40;99.90;;;;;;6243840;22;20515;-53
2021/11/26 02:04:44;;;;;;;38.80;23.80;;;3.20;99.90;;;;;;6254226;22;20149;-54
2021/11/26 02:07:10;;;;;;;35.17;21.55;;;3.40;99.90;;;;;;6254475;22;20149;-54
2021/11/26 02:09:35;;;;;;;39.50;23.17;;;3.40;99.90;;;;;;6254070;22;20163;-54
2021/11/26 02:12:01;;;;;;;35.77;24.07;;;3.40;99.90;;;;;;6254495;23;20204;-54
2021/11/26 02:14:27;;;;;;;36.57;23.53;;;3.10;99.90;;;;;;6254370;23;20150;-54
2021/11/26 02:16:52;;;;;;;40.67;24.23;;;3.20;99.90;;;;;;6252959;23;20480;-54
2021/11/26 02:19:23;;;;;;;35.67;23.40;;;3.10;99.90;;;;;;6253607;23;20189;-54
2021/11/26 02:21:49;;;;;;;43.83;22.08;;;3.40;99.90;;;;;;6253949;22;20209;-54
2021/11/26 02:24:15;;;;;;;39.00;22.52;;;3.30;99.90;;;;;;6253982;22;20223;-54
2021/11/26 02:26:43;;;;;;;40.40;23.60;;;2.50;99.90;;;;;;6243390;23;20600;-54
2021/11/26 02:29:10;;;;;;;39.15;23.75;;;3.40;99.90;;;;;;6243804;22;20240;-55
2021/11/26 02:31:36;;;;;;;37.95;24.15;;;3.50;99.90;;;;;;6244273;22;20594;-54
2021/11/26 02:34:03;;;;;;;38.38;22.40;;;3.60;99.90;;;;;;6253768;23;20153;-54
2021/11/26 02:36:28;;;;;;;35.35;22.67;;;3.70;99.90;;;;;;6254054;22;20596;-54
2021/11/26 02:38:54;;;;;;;34.03;21.93;;;3.40;99.90;;;;;;6251204;23;20149;-54
2021/11/26 02:41:20;;;;;;;36.43;21.30;;;3.50;99.90;;;;;;6253220;23;20207;-54
2021/11/26 02:43:46;;;;;;;37.43;24.70;;;3.40;99.90;;;;;;6253919;22;20153;-54
2021/11/26 02:46:11;;;;;;;41.25;22.13;;;3.40;99.90;;;;;;6243685;22;20470;-54
2021/11/26 02:48:38;;;;;;;38.10;21.00;;;3.50;99.90;;;;;;6253019;23;20187;-54
2021/11/26 02:51:04;;;;;;;34.83;21.83;;;3.30;99.90;;;;;;6254242;22;20188;-54
2021/11/26 02:53:31;;;;;;;34.05;20.90;;;3.60;99.90;;;;;;6254309;22;20161;-53
2021/11/26 02:55:57;;;;;;;33.65;20.35;;;3.80;99.90;;;;;;6253819;22;20220;-54
2021/11/26 02:58:23;;;;;;;34.43;19.33;;;3.60;99.90;;;;;;6251829;22;20532;-54
2021/11/26 03:00:53;;;;;;;31.87;21.30;;;3.80;99.90;;;;;;6252844;23;20443;-53
2021/11/26 03:03:19;;;;;;;37.83;21.02;;;3.70;99.90;;;;;;6253580;22;20420;-54
2021/11/26 03:05:45;;;;;;;35.80;21.70;;;3.30;99.90;;;;;;6254449;22;20199;-54
2021/11/26 03:08:12;;;;;;;37.20;21.67;;;3.80;99.90;;;;;;6254040;22;20384;-54
2021/11/26 03:10:39;;;;;;;37.53;23.30;;;3.90;99.90;;;;;;6253541;22;20165;-53
2021/11/26 03:13:07;;;;;;;33.35;21.98;;;3.70;99.90;;;;;;6253918;22;20215;-53
2021/11/26 03:15:35;;;;;;;35.50;21.83;;;3.00;99.90;;;;;;6243801;22;20164;-53
2021/11/26 03:18:02;;;;;;;36.38;23.50;;;3.50;99.90;;;;;;6251885;22;20177;-54
2021/11/26 03:20:29;;;;;;;42.47;24.90;;;3.70;99.90;;;;;;6252912;22;20177;-54
2021/11/26 03:22:55;;;;;;;36.90;22.67;;;3.90;99.90;;;;;;6253879;22;20173;-54
2021/11/26 03:25:21;;;;;;;38.63;24.60;;;3.70;99.90;;;;;;6253916;22;20173;-54
2021/11/26 03:27:47;;;;;;;39.40;23.57;;;3.70;99.90;;;;;;6253524;22;20150;-54
2021/11/26 03:30:17;;;;;;;35.30;22.88;;;3.60;99.90;;;;;;6253570;22;20747;-54
2021/11/26 03:32:44;;;;;;;44.70;23.77;;;3.20;99.90;;;;;;6243297;22;20158;-54
2021/11/26 03:35:10;;;;;;;42.17;24.30;;;3.40;99.90;;;;;;6253454;22;20243;-54
2021/11/26 03:37:37;;;;;;;38.22;23.15;;;3.40;99.90;;;;;;6252228;22;20259;-54
2021/11/26 03:40:05;;;;;;;40.35;24.40;;;3.50;99.90;;;;;;6251698;22;20157;-54
2021/11/26 03:42:31;;;;;;;34.67;22.38;;;3.50;99.90;;;;;;6242985;22;20555;-54
2021/11/26 03:44:57;;;;;;;37.87;24.83;;;3.60;99.90;;;;;;6249723;23;20146;-54
2021/11/26 03:47:22;;;;;;;36.20;23.57;;;3.40;99.90;;;;;;6252918;22;20626;-53
2021/11/26 03:49:48;;;;;;;36.47;22.37;;;3.10;99.90;;;;;;6243125;23;20200;-54
2021/11/26 03:52:14;;;;;;;37.70;23.20;;;3.50;99.90;;;;;;6252846;23;20181;-54
2021/11/26 03:54:41;;;;;;;37.13;23.53;;;3.50;99.90;;;;;;6252699;22;20164;-54
2021/11/26 03:57:08;;;;;;;39.13;23.48;;;3.50;99.90;;;;;;6252181;22;20471;-54
2021/11/26 03:59:34;;;;;;;39.80;22.95;;;2.90;99.90;;;;;;6241533;22;20165;-54
2021/11/26 04:02:00;;;;;;;39.28;24.58;;;3.00;99.90;;;;;;6252729;23;20184;-54
2021/11/26 04:04:25;;;;;;;37.40;23.40;;;2.70;99.90;;;;;;6252490;23;20177;-53
2021/11/26 04:06:51;;;;;;;34.33;22.10;;;3.00;99.90;;;;;;6252858;22;20142;-54
2021/11/26 04:09:17;;;;;;;35.93;22.90;;;3.30;99.90;;;;;;6242164;23;20384;-54
2021/11/26 04:11:42;;;;;;;36.20;22.50;;;3.10;99.90;;;;;;6253195;23;20248;-53
2021/11/26 04:14:08;;;;;;;36.27;23.10;;;3.30;99.90;;;;;;6252943;23;20415;-53
2021/11/26 04:16:36;;;;;;;39.30;23.23;;;3.00;99.90;;;;;;6252489;23;20160;-54
2021/11/26 04:19:03;;;;;;;40.53;24.70;;;3.00;99.90;;;;;;6251440;22;20239;-52
2021/11/26 04:21:29;;;;;;;50.45;26.08;;;3.10;99.90;;;;;;6240653;23;20632;-54
2021/11/26 04:23:54;;;;;;;44.07;25.17;;;3.20;99.90;;;;;;6252653;22;20149;-53
2021/11/26 04:26:20;;;;;;;40.70;22.63;;;3.00;99.90;;;;;;6253360;23;20271;-54
2021/11/26 04:28:46;;;;;;;41.07;22.93;;;3.10;99.90;;;;;;6253145;23;20157;-54
2021/11/26 04:31:11;;;;;;;39.30;21.73;;;3.40;99.90;;;;;;6242499;23;20180;-54
2021/11/26 04:33:37;;;;;;;35.13;22.40;;;3.30;99.90;;;;;;6252899;23;20558;-53
2021/11/26 04:36:03;;;;;;;39.33;23.80;;;3.10;99.90;;;;;;6252760;22;20685;-54
2021/11/26 04:38:29;;;;;;;40.40;22.75;;;2.90;99.90;;;;;;6252287;22;20149;-54
2021/11/26 04:40:55;;;;;;;35.97;21.47;;;3.00;99.90;;;;;;6251837;22;20250;-54
2021/11/26 04:43:23;;;;;;;32.20;20.20;;;3.10;99.90;;;;;;6253335;22;20639;-54
2021/11/26 04:45:50;;;;;;;33.40;21.00;;;2.60;99.90;;;;;;6253362;22;20392;-53
2021/11/26 04:48:16;;;;;;;38.75;22.30;;;3.00;99.90;;;;;;6252261;22;20152;-54
2021/11/26 04:50:42;;;;;;;39.95;24.38;;;3.20;99.90;;;;;;6239192;23;20173;-54
2021/11/26 04:53:07;;;;;;;43.23;24.93;;;3.40;99.90;;;;;;6253235;22;20235;-54
2021/11/26 04:55:33;;;;;;;43.67;25.33;;;3.30;99.90;;;;;;6252748;22;20153;-54
2021/11/26 04:57:59;;;;;;;44.17;25.53;;;3.00;99.90;;;;;;6252831;23;20376;-54
2021/11/26 05:00:24;;;;;;;40.57;23.70;;;3.10;99.90;;;;;;6252577;23;20223;-54
2021/11/26 05:02:51;;;;;;;36.40;21.17;;;2.90;99.90;;;;;;6242941;23;20239;-54
2021/11/26 05:05:17;;;;;;;39.78;23.40;;;3.20;99.90;;;;;;6253036;22;20380;-54
2021/11/26 05:07:43;;;;;;;40.13;21.50;;;3.20;99.90;;;;;;6266455;22;20634;-54
2021/11/26 05:10:10;;;;;;;41.13;22.87;;;3.40;99.90;;;;;;6252259;23;20204;-54
2021/11/26 05:12:39;;;;;;;41.65;23.77;;;3.20;99.90;;;;;;6253391;22;20150;-54
2021/11/26 05:15:05;;;;;;;39.22;23.52;;;3.00;99.90;;;;;;6242339;22;20168;-54
2021/11/26 05:17:31;;;;;;;36.67;21.48;;;3.60;99.90;;;;;;6252638;22;20239;-54
2021/11/26 05:19:58;;;;;;;43.10;24.27;;;3.60;99.90;;;;;;6252030;23;20189;-54
2021/11/26 05:22:24;;;;;;;40.63;24.73;;;3.60;99.90;;;;;;6252840;22;20186;-53
2021/11/26 05:24:49;;;;;;;36.80;23.52;;;3.70;99.90;;;;;;6252284;22;20157;-54
2021/11/26 05:27:15;;;;;;;42.03;25.40;;;3.20;99.90;;;;;;6252515;23;20205;-54
2021/11/26 05:29:41;;;;;;;42.13;25.02;;;3.60;99.90;;;;;;6242216;22;20158;-53
2021/11/26 05:32:09;;;;;;;41.50;24.63;;;3.50;99.90;;;;;;6252361;22;20482;-54
2021/11/26 05:34:35;;;;;;;38.92;24.08;;;3.40;99.90;;;;;;6252319;22;20232;-54
2021/11/26 05:37:01;;;;;;;41.90;25.08;;;3.40;99.90;;;;;;6252598;23;20499;-54
2021/11/26 05:39:26;;;;;;;41.03;25.07;;;3.80;99.90;;;;;;6240128;23;20605;-53
2021/11/26 05:41:52;;;;;;;40.27;23.93;;;3.50;99.90;;;;;;6240973;23;20428;-51
2021/11/26 05:44:18;;;;;;;41.40;22.80;;;3.70;99.90;;;;;;6241046;23;20153;-50
2021/11/26 05:46:44;;;;;;;39.60;24.20;;;3.60;99.90;;;;;;6241548;23;20408;-51
2021/11/26 05:49:09;;;;;;;44.40;24.40;;;3.50;99.90;;;;;;6240997;22;20157;-51
2021/11/26 05:51:35;;;;;;;38.23;24.10;;;3.30;99.90;;;;;;6242568;22;20181;-51
2021/11/26 05:54:01;;;;;;;40.27;24.47;;;3.20;99.90;;;;;;6240917;22;20396;-51
2021/11/26 05:56:26;;;;;;;36.90;20.83;;;3.00;99.90;;;;;;6252098;23;20161;-51
2021/11/26 05:58:52;;;;;;;35.27;21.23;;;3.10;99.90;;;;;;6252239;23;20157;-52
2021/11/26 06:01:18;;;;;;;35.13;21.33;;;3.60;99.90;;;;;;6242632;22;20801;-50
2021/11/26 06:03:44;;;;;;;40.90;22.33;;;3.60;99.90;;;;;;6253442;22;20180;-52
2021/11/26 06:06:09;;;;;;;32.97;20.57;;;3.60;99.90;;;;;;6241862;23;20162;-53
2021/11/26 06:08:35;;;;;;;37.47;22.03;;;3.40;99.90;;;;;;6241940;23;20161;-53
2021/11/26 06:11:01;;;;;;;41.10;23.50;;;3.30;99.90;;;;;;6243497;23;20252;-51
2021/11/26 06:13:27;;;;;;;37.17;20.52;;;3.60;99.90;;;;;;6253591;22;20153;-51
2021/11/26 06:15:53;;;;;;;38.60;21.63;;;2.70;99.90;;;;;;6252996;22;20220;-51
2021/11/26 06:18:19;;;;;;;38.40;21.67;;;3.40;99.90;;;;;;6252369;23;20470;-52
2021/11/26 06:20:44;;;;;;;32.07;21.17;;;3.60;99.90;;;;;;6252832;23;20243;-51
2021/11/26 06:23:10;;;;;;;37.43;21.47;;;3.80;99.90;;;;;;6252658;23;20519;-51
2021/11/26 06:25:36;;;;;;;36.30;20.50;;;3.50;99.90;;;;;;6253363;23;20212;-51
2021/11/26 06:28:02;;;;;;;37.50;21.10;;;3.90;99.90;;;;;;6253734;23;20228;-50
2021/11/26 06:30:27;;;;;;;37.60;20.23;;;3.50;99.90;;;;;;6253391;22;20188;-52
2021/11/26 06:32:53;;;;;;;35.43;19.80;;;3.50;99.90;;;;;;6253781;23;20542;-51
2021/11/26 06:35:21;;;;;;;34.38;21.27;;;3.40;99.90;;;;;;6253456;22;20172;-51
2021/11/26 06:37:51;;;;;;;33.88;21.25;;;3.50;99.90;;;;;;6251536;23;20162;-51
2021/11/26 06:40:19;;;;;;;35.47;20.23;;;3.30;99.90;;;;;;6252931;22;20631;-51
2021/11/26 06:42:47;;;;;;;34.42;20.75;;;3.40;99.90;;;;;;6243291;22;20185;-51
2021/11/26 06:45:13;;;;;;;35.10;22.02;;;3.60;99.90;;;;;;6253512;22;20498;-52
2021/11/26 06:47:39;;;;;;;34.15;20.75;;;3.30;99.90;;;;;;6253117;22;20160;-51
2021/11/26 06:50:07;;;;;;;35.50;19.23;;;3.30;99.90;;;;;;6253527;22;20452;-50
2021/11/26 06:52:33;;;;;;;32.40;19.85;;;4.10;99.90;;;;;;6253770;22;20149;-51
2021/11/26 06:55:00;;;;;;;35.35;20.55;;;4.10;99.90;;;;;;6252903;22;20157;-52
2021/11/26 06:57:26;;;;;;;32.03;20.42;;;4.00;99.90;;;;;;6250934;22;20492;-52
2021/11/26 06:59:53;;;;;;;34.50;19.98;;;3.90;99.90;;;;;;6252983;22;20631;-51
2021/11/26 07:02:19;;;;;;;30.80;18.13;;;3.40;99.90;;;;;;6252686;22;20517;-51
2021/11/26 07:04:46;;;;;;;32.60;19.80;;;3.70;99.90;;;;;;6242873;22;20153;-51
2021/11/26 07:07:12;;;;;;;29.98;18.20;;;3.20;99.90;;;;;;6251927;22;20154;-52
2021/11/26 07:09:38;;;;;;;36.75;21.20;;;3.90;99.90;;;;;;6252749;22;20540;-51
2021/11/26 07:12:09;;;;;;;32.00;19.77;;;4.00;99.90;;;;;;6252963;23;20173;-51
2021/11/26 07:14:39;;;;;;;33.83;19.35;;;3.80;99.90;;;;;;6253025;22;20134;-52
2021/11/26 07:17:05;;;;;;;33.00;19.83;;;3.70;99.90;;;;;;6252591;23;20616;-51
2021/11/26 07:19:31;;;;;;;34.58;21.17;;;3.80;99.90;;;;;;6253222;22;20183;-51
2021/11/26 07:21:57;;;;;;;34.00;20.57;;;3.80;99.90;;;;;;6253298;22;20501;-51
2021/11/26 07:24:22;;;;;;;36.83;20.67;;;2.90;99.90;;;;;;6252710;23;20851;-52
2021/11/26 07:26:48;;;;;;;36.00;20.03;;;3.50;99.90;;;;;;6253056;23;20164;-51
2021/11/26 07:29:14;;;;;;;37.47;21.40;;;3.80;99.90;;;;;;6252688;23;20149;-51
2021/11/26 07:31:40;;;;;;;37.73;21.47;;;3.70;99.90;;;;;;6243027;22;20723;-54
2021/11/26 07:34:05;;;;;;;36.70;21.90;;;3.70;99.90;;;;;;6254142;23;20153;-50
2021/11/26 07:36:31;;;;;;;35.20;22.17;;;3.50;99.90;;;;;;6254417;23;20153;-51
2021/11/26 07:38:57;;;;;;;41.37;21.37;;;3.40;99.90;;;;;;6244447;22;20167;-53
2021/11/26 07:41:22;;;;;;;38.90;24.33;;;3.90;99.90;;;;;;6252828;23;20184;-53
2021/11/26 07:43:48;;;;;;;36.03;22.33;;;3.20;99.90;;;;;;6254552;23;20616;-53
2021/11/26 07:46:14;;;;;;;34.00;22.20;;;4.00;99.90;;;;;;6244131;23;20789;-52
2021/11/26 07:48:40;;;;;;;32.53;20.57;;;4.10;99.90;;;;;;6254364;23;20153;-51
2021/11/26 07:51:05;;;;;;;31.33;19.30;;;3.70;99.90;;;;;;6254376;23;20176;-51
2021/11/26 07:53:32;;;;;;;33.57;21.30;;;4.00;99.90;;;;;;6254600;23;20539;-51
2021/11/26 07:55:59;;;;;;;32.92;21.80;;;4.20;99.90;;;;;;6244026;22;20390;-49
2021/11/26 07:58:24;;;;;;;33.88;21.58;;;3.80;99.90;;;;;;6253009;23;20144;-50
2021/11/26 08:00:50;;;;;;;37.60;20.07;;;3.80;99.90;;;;;;6253490;22;20650;-50
2021/11/26 08:03:18;;;;;;;35.20;19.90;;;3.90;99.90;;;;;;6242023;22;20212;-53
2021/11/26 08:05:44;;;;;;;36.08;20.45;;;4.20;99.90;;;;;;6252127;22;20882;-54
2021/11/26 08:08:10;;;;;;;32.80;19.97;;;4.00;99.90;;;;;;6242161;23;20161;-53
2021/11/26 08:10:37;;;;;;;34.23;20.87;;;4.10;99.90;;;;;;6251732;23;20253;-52
2021/11/26 08:13:04;;;;;;;34.50;20.88;;;4.10;99.90;;;;;;6253006;22;20228;-53
2021/11/26 08:15:31;;;;;;;33.60;19.42;;;4.10;99.90;;;;;;6252483;22;20157;-52
2021/11/26 08:18:01;;;;;;;33.17;19.85;;;4.10;99.90;;;;;;6252071;22;20200;-53
2021/11/26 08:20:27;;;;;;;35.78;19.95;;;3.90;99.90;;;;;;6252694;22;20174;-51
2021/11/26 08:22:54;;;;;;;34.07;18.83;;;4.20;99.90;;;;;;6252499;22;20187;-51
2021/11/26 08:25:23;;;;;;;40.47;21.73;;;4.10;99.90;;;;;;6241900;22;20384;-50
2021/11/26 08:27:49;;;;;;;35.28;19.88;;;4.20;99.90;;;;;;6241993;22;20157;-50
2021/11/26 08:30:15;;;;;;;29.67;20.17;;;4.20;99.90;;;;;;6252688;22;20168;-51
2021/11/26 08:32:41;;;;;;;33.73;19.30;;;4.00;99.90;;;;;;6252315;22;20645;-50
2021/11/26 08:35:07;;;;;;;32.53;19.70;;;3.80;99.90;;;;;;6242203;22;20388;-51
2021/11/26 08:37:33;;;;;;;37.50;21.50;;;4.50;99.90;;;;;;6252089;22;20740;-51
2021/11/26 08:39:59;;;;;;;29.73;19.65;;;3.70;99.90;;;;;;6251866;22;20398;-52
2021/11/26 08:42:25;;;;;;;32.15;19.73;;;4.30;99.90;;;;;;6252255;22;20650;-53
2021/11/26 08:44:51;;;;;;;31.87;20.83;;;4.50;99.90;;;;;;6252129;23;20514;-53
2021/11/26 08:47:17;;;;;;;33.20;19.60;;;4.10;99.90;;;;;;6251529;23;20170;-54
2021/11/26 08:49:42;;;;;;;29.73;18.90;;;3.70;99.90;;;;;;6242129;22;20448;-51
2021/11/26 08:52:09;;;;;;;31.73;19.97;;;4.30;99.90;;;;;;6252568;23;20178;-52
2021/11/26 08:54:36;;;;;;;30.65;19.77;;;4.40;99.90;;;;;;6252479;22;20614;-52
2021/11/26 08:57:01;;;;;;;34.35;20.92;;;4.60;99.90;;;;;;6252203;22;20158;-52
2021/11/26 08:59:27;;;;;;;36.47;22.20;;;4.50;99.90;;;;;;6240071;23;20592;-52
2021/11/26 09:01:54;;;;;;;38.63;20.47;;;4.50;99.90;;;;;;6253667;22;20255;-52
2021/11/26 09:04:25;;;;;;;35.17;21.23;;;4.70;99.90;;;;;;6252444;23;20381;-51
2021/11/26 09:06:51;;;;;;;41.28;25.65;;;4.50;99.90;;;;;;6267133;22;20174;-50
2021/11/26 09:09:18;;;;;;;39.45;22.42;;;4.70;99.90;;;;;;6253496;22;20235;-50
2021/11/26 09:11:44;;;;;;;34.15;22.50;;;4.40;99.90;;;;;;6253264;22;20174;-50
2021/11/26 09:14:10;;;;;;;30.80;19.20;;;4.60;99.90;;;;;;6243035;22;20484;-49
2021/11/26 09:16:36;;;;;;;32.40;20.00;;;4.70;99.90;;;;;;6253647;22;20147;-49
2021/11/26 09:19:03;;;;;;;31.80;19.93;;;4.80;99.90;;;;;;6253841;23;20223;-50
2021/11/26 09:21:28;;;;;;;31.88;19.58;;;5.00;99.90;;;;;;6253730;22;20471;-54
2021/11/26 09:23:54;;;;;;;38.80;22.93;;;4.80;99.90;;;;;;6253645;23;20611;-49
2021/11/26 09:26:20;;;;;;;32.28;21.23;;;4.80;99.90;;;;;;6253882;22;20208;-49
2021/11/26 09:28:46;;;;;;;36.73;23.20;;;4.80;99.90;;;;;;6242980;23;20225;-50
2021/11/26 09:31:12;;;;;;;36.37;21.50;;;4.70;99.90;;;;;;6243389;22;20694;-50
2021/11/26 09:33:38;;;;;;;33.00;22.67;;;4.80;99.90;;;;;;6253540;22;20221;-49
2021/11/26 09:36:09;;;;;;;35.97;21.77;;;4.90;99.90;;;;;;6244373;23;20486;-49
2021/11/26 09:38:37;;;;;;;36.03;22.48;;;4.90;99.90;;;;;;6245351;22;20628;-49
2021/11/26 09:41:06;;;;;;;35.42;21.70;;;5.00;99.90;;;;;;6255018;22;20200;-52
2021/11/26 09:43:33;;;;;;;36.60;22.20;;;5.20;99.90;;;;;;6255249;23;20182;-52
2021/11/26 09:46:02;;;;;;;33.30;21.35;;;5.00;99.90;;;;;;6255542;22;20197;-52
2021/11/26 09:48:27;;;;;;;33.72;21.52;;;5.10;99.90;;;;;;6254639;22;20151;-52
2021/11/26 09:50:53;;;;;;;34.40;21.67;;;4.70;99.90;;;;;;6255236;22;20175;-51
2021/11/26 09:53:22;;;;;;;33.33;21.70;;;4.70;99.90;;;;;;6255099;23;20158;-51
2021/11/26 09:55:51;;;;;;;33.15;21.73;;;4.80;99.90;;;;;;6254941;22;20147;-52
2021/11/26 09:58:17;;;;;;;38.20;22.08;;;4.30;99.90;;;;;;6254930;22;20443;-51
2021/11/26 10:00:44;;;;;;;39.63;24.13;;;4.70;99.90;;;;;;6253868;22;20226;-52
2021/11/26 10:03:11;;;;;;;40.33;23.55;;;4.90;99.90;;;;;;6256001;22;20590;-52
2021/11/26 10:05:37;;;;;;;33.25;21.90;;;4.80;99.90;;;;;;6239200;23;20317;-52
2021/11/26 10:08:04;;;;;;;35.70;23.58;;;4.70;99.90;;;;;;6243269;23;20178;-51
2021/11/26 10:10:36;;;;;;;42.05;24.10;;;4.80;99.90;;;;;;6252882;22;20184;-53
2021/11/26 10:13:12;;;;;;;36.78;22.60;;;4.80;99.90;;;;;;6243303;22;20609;-53
2021/11/26 10:15:41;;;;;;;39.05;23.58;;;4.50;99.90;;;;;;6253413;22;20146;-52
2021/11/26 10:18:15;;;;;;;36.00;21.30;;;4.60;99.90;;;;;;6252669;22;20178;-52
2021/11/26 10:20:55;;;;;;;38.90;23.10;;;4.60;99.90;;;;;;6252612;22;20193;-52
2021/11/26 10:23:23;;;;;;;38.05;22.02;;;4.80;99.90;;;;;;6252504;22;20628;-51
2021/11/26 10:25:49;;;;;;;33.03;20.45;;;4.80;99.90;;;;;;6241260;22;20227;-49
2021/11/26 10:28:18;;;;;;;41.25;23.17;;;4.90;99.90;;;;;;6253552;22;20151;-51
2021/11/26 10:30:47;;;;;;;32.42;20.15;;;4.80;99.90;;;;;;6241359;23;20505;-51
2021/11/26 10:33:25;;;;;;;36.42;21.83;;;4.70;99.90;;;;;;6253346;22;20180;-51
2021/11/26 10:35:54;;;;;;;34.28;21.00;;;5.00;99.90;;;;;;6252237;22;20233;-51
2021/11/26 10:38:24;;;;;;;32.75;20.00;;;5.10;99.90;;;;;;6243050;22;20186;-52
2021/11/26 10:41:04;;;;;;;33.13;20.35;;;5.00;99.90;;;;;;6253061;22;20175;-51
2021/11/26 10:43:39;;;;;;;35.35;20.33;;;4.70;99.90;;;;;;6243735;22;20543;-51
2021/11/26 10:59:10;;;;;;;37.10;20.95;;;5.20;99.90;;;;;;6251887;23;20224;-52
2021/11/26 11:01:43;;;;;;;39.88;22.70;;;5.30;99.90;;;;;;6252380;22;20179;-51
2021/11/26 11:04:18;;;;;;;35.90;20.38;;;5.10;99.90;;;;;;6252526;22;20232;-51
2021/11/26 11:06:55;;;;;;;38.58;21.67;;;5.20;99.90;;;;;;6251090;22;20289;-52
2021/11/26 11:09:21;;;;;;;30.40;20.77;;;5.20;99.90;;;;;;6242307;22;20586;-53
2021/11/26 11:11:54;;;;;;;36.33;21.90;;;5.30;99.90;;;;;;6241251;23;20258;-52
2021/11/26 11:14:24;;;;;;;33.83;20.60;;;5.00;99.90;;;;;;6252750;22;20623;-51
2021/11/26 11:16:55;;;;;;;30.90;19.70;;;5.40;99.90;;;;;;6252816;22;20162;-51
2021/11/26 11:19:23;;;;;;;32.08;19.52;;;5.20;99.90;;;;;;6252030;22;20623;-51
2021/11/26 11:21:50;;;;;;;33.40;19.58;;;5.60;99.90;;;;;;6252641;22;20181;-51
2021/11/26 11:24:17;;;;;;;34.95;21.58;;;5.20;99.90;;;;;;6242105;22;20189;-51
2021/11/26 11:26:46;;;;;;;33.35;20.00;;;5.20;99.90;;;;;;6252500;22;20169;-51
2021/11/26 11:29:14;;;;;;;31.17;18.00;;;5.10;99.90;;;;;;6252849;22;20214;-51
2021/11/26 11:31:41;;;;;;;33.17;21.15;;;5.30;99.90;;;;;;6252415;22;20166;-50
2021/11/26 11:34:08;;;;;;;30.13;19.67;;;5.20;99.90;;;;;;6242622;22;20158;-51
2021/11/26 11:36:36;;;;;;;38.95;22.05;;;5.00;99.90;;;;;;6252447;22;20609;-51
2021/11/26 11:39:05;;;;;;;34.47;19.88;;;4.80;99.90;;;;;;6242371;22;20192;-51
2021/11/26 11:41:31;;;;;;;31.30;19.33;;;5.10;99.90;;;;;;6252454;22;20495;-51
2021/11/26 11:43:57;;;;;;;31.38;19.15;;;5.10;99.90;;;;;;6252713;22;20153;-51
2021/11/26 11:46:33;;;;;;;32.27;20.13;;;5.10;99.90;;;;;;6252607;22;20287;-51
2021/11/26 11:48:58;;;;;;;29.40;19.40;;;5.20;99.90;;;;;;6242612;22;20186;-51
2021/11/26 11:51:28;;;;;;;32.40;20.40;;;4.50;99.90;;;;;;6252645;23;20506;-50
2021/11/26 11:54:20;;;;;;;30.08;18.70;;;5.20;99.90;;;;;;6241985;22;20527;-51
2021/11/26 11:56:48;;;;;;;34.58;20.08;;;4.60;99.90;;;;;;6237177;22;20224;-50
2021/11/26 11:59:32;;;;;;;28.92;17.75;;;5.10;99.90;;;;;;6251916;22;20147;-51
2021/11/26 12:02:03;;;;;;;31.45;17.98;;;5.20;99.90;;;;;;6242431;22;20189;-51
2021/11/26 12:04:41;;;;;;;28.90;18.00;;;4.60;99.90;;;;;;6241793;22;20170;-51
2021/11/26 12:07:07;;;;;;;26.40;16.70;;;5.20;99.90;;;;;;6250496;22;20593;-51
2021/11/26 12:09:35;;;;;;;28.17;17.90;;;5.40;99.90;;;;;;6252684;23;20163;-51
2021/11/26 12:12:15;;;;;;;29.83;18.00;;;4.70;99.90;;;;;;6252253;22;20224;-51
2021/11/26 12:14:48;;;;;;;28.98;18.83;;;5.20;99.90;;;;;;6250811;22;20145;-51
2021/11/26 12:17:34;;;;;;;30.27;18.80;;;5.30;99.90;;;;;;6251321;22;20159;-51
2021/11/26 12:20:14;;;;;;;32.67;19.02;;;5.40;99.90;;;;;;6251568;22;20158;-49
2021/11/26 12:22:51;;;;;;;29.40;19.25;;;5.50;99.90;;;;;;6242600;22;20198;-48
2021/11/26 12:25:29;;;;;;;30.35;18.75;;;5.50;99.90;;;;;;6252022;22;20143;-50
2021/11/26 12:28:01;;;;;;;25.58;17.17;;;5.30;99.90;;;;;;6241649;22;20148;-50
2021/11/26 12:30:27;;;;;;;26.52;16.25;;;5.50;99.90;;;;;;6241485;22;20213;-52
2021/11/26 12:32:53;;;;;;;28.07;17.97;;;5.00;99.90;;;;;;6251114;23;20153;-52
2021/11/26 12:35:18;;;;;;;27.67;17.00;;;5.20;99.90;;;;;;6251383;22;20425;-52
2021/11/26 12:37:47;;;;;;;28.47;17.40;;;5.40;99.90;;;;;;6241008;22;20913;-51
2021/11/26 12:40:15;;;;;;;31.70;17.92;;;5.30;99.90;;;;;;6252095;22;20181;-51
2021/11/26 12:42:41;;;;;;;30.38;17.80;;;4.50;99.90;;;;;;6252236;22;20227;-51
2021/11/26 12:45:14;;;;;;;29.38;17.17;;;5.10;99.90;;;;;;6266191;22;20165;-50
2021/11/26 12:48:05;;;;;;;35.50;19.65;;;5.20;99.90;;;;;;6242430;22;20163;-54
2021/11/26 12:53:20;;;;;;;32.10;18.38;;;5.10;99.90;;;;;;6252294;23;20524;-53
2021/11/26 12:55:54;;;;;;;30.98;17.88;;;5.30;99.90;;;;;;6251412;22;20147;-54